Time;durP1;ratioP1;P1;durP2;ratioP2;P2;SDS_P1;SDS_P2;PMS_P1;PMS_P2;Temp;Humidity;BMP_temperature;BMP_pressure;BME280_temperature;BME280_humidity;BME280_pressure;Samples;Min_cycle;Max_cycle;Signal;HPM_P1;HPM_P2
2021/07/10 00:02:12;;;;;;;27.13;17.77;;;;;;;;;;10562838;28;20583;-73
2021/07/10 00:07:16;;;;;;;29.20;17.50;;;;;;;;;;10546375;28;20592;-74
2021/07/10 00:12:18;;;;;;;26.23;16.80;;;;;;;;;;10543757;28;20227;-74
2021/07/10 00:17:21;;;;;;;22.40;15.03;;;;;;;;;;10552405;28;20519;-74
2021/07/10 00:22:25;;;;;;;24.60;16.33;;;;;;;;;;10553295;28;20290;-72
2021/07/10 00:27:27;;;;;;;27.07;16.77;;;;;;;;;;10553006;28;20631;-73
2021/07/10 00:32:30;;;;;;;25.97;16.90;;;;;;;;;;10549660;28;20271;-73
2021/07/10 00:37:34;;;;;;;28.70;17.23;;;;;;;;;;10546227;28;20187;-73
2021/07/10 00:42:37;;;;;;;26.77;17.47;;;;;;;;;;10550077;28;20284;-73
2021/07/10 00:47:40;;;;;;;28.13;17.00;;;;;;;;;;10555084;28;20638;-72
2021/07/10 00:52:44;;;;;;;29.13;17.13;;;;;;;;;;10543482;28;20238;-73
2021/07/10 00:57:47;;;;;;;29.10;17.77;;;;;;;;;;10555064;28;20195;-72
2021/07/10 01:02:50;;;;;;;28.10;17.50;;;;;;;;;;10548279;28;20295;-73
2021/07/10 01:07:56;;;;;;;27.80;17.27;;;;;;;;;;10538328;28;20555;-73
2021/07/10 01:12:58;;;;;;;26.90;17.63;;;;;;;;;;10542733;28;20218;-72
2021/07/10 01:18:01;;;;;;;29.53;18.33;;;;;;;;;;10552719;28;20659;-72
2021/07/10 01:23:05;;;;;;;28.33;17.23;;;;;;;;;;10545056;28;20208;-72
2021/07/10 01:28:08;;;;;;;27.70;16.63;;;;;;;;;;10549715;28;20248;-72
2021/07/10 01:33:11;;;;;;;27.73;17.43;;;;;;;;;;10555089;28;20204;-73
2021/07/10 01:38:16;;;;;;;27.40;16.87;;;;;;;;;;10546536;28;20275;-73
2021/07/10 01:43:18;;;;;;;29.47;17.20;;;;;;;;;;10552667;28;20290;-73
2021/07/10 01:48:21;;;;;;;28.67;16.63;;;;;;;;;;10556016;28;20187;-73
2021/07/10 01:53:25;;;;;;;29.57;16.93;;;;;;;;;;10554638;28;20223;-73
2021/07/10 01:58:27;;;;;;;29.10;16.83;;;;;;;;;;10551186;28;20655;-73
2021/07/10 02:03:30;;;;;;;25.27;15.07;;;;;;;;;;10541250;28;20227;-74
2021/07/10 02:08:34;;;;;;;24.13;15.30;;;;;;;;;;10539940;28;20241;-73
2021/07/10 02:13:36;;;;;;;22.90;14.23;;;;;;;;;;10553073;28;20258;-73
2021/07/10 02:18:39;;;;;;;18.87;11.43;;;;;;;;;;10526171;28;20195;-71
2021/07/10 02:23:43;;;;;;;20.47;12.10;;;;;;;;;;10538973;28;20210;-72
2021/07/10 02:28:46;;;;;;;16.43;10.80;;;;;;;;;;10541993;28;20222;-73
2021/07/10 02:33:48;;;;;;;18.70;12.13;;;;;;;;;;10526010;28;20238;-72
2021/07/10 02:38:52;;;;;;;19.77;11.57;;;;;;;;;;10547781;28;20194;-73
2021/07/10 02:43:55;;;;;;;15.50;10.60;;;;;;;;;;10541125;28;20203;-72
2021/07/10 02:48:58;;;;;;;15.43;9.50;;;;;;;;;;10552874;28;20227;-73
2021/07/10 02:54:02;;;;;;;16.40;10.30;;;;;;;;;;10542630;28;20275;-71
2021/07/10 02:59:05;;;;;;;16.30;10.43;;;;;;;;;;10552349;28;20195;-73
2021/07/10 03:04:07;;;;;;;18.00;11.03;;;;;;;;;;10540536;28;20219;-71
2021/07/10 03:09:11;;;;;;;17.53;11.50;;;;;;;;;;10549059;28;20187;-71
2021/07/10 03:14:14;;;;;;;17.13;10.97;;;;;;;;;;10535222;28;20211;-75
2021/07/10 03:19:16;;;;;;;16.60;10.00;;;;;;;;;;10564355;28;20265;-72
2021/07/10 03:24:20;;;;;;;18.23;11.50;;;;;;;;;;10556899;28;20271;-72
2021/07/10 03:29:22;;;;;;;16.10;10.73;;;;;;;;;;10550393;28;20639;-73
2021/07/10 03:34:25;;;;;;;15.17;9.73;;;;;;;;;;10540029;28;20704;-72
2021/07/10 03:39:29;;;;;;;16.23;9.17;;;;;;;;;;10550346;28;20641;-72
2021/07/10 03:44:32;;;;;;;12.97;8.40;;;;;;;;;;10533784;28;20199;-72
2021/07/10 03:49:34;;;;;;;13.80;9.30;;;;;;;;;;10554819;28;20245;-73
2021/07/10 03:54:38;;;;;;;15.17;9.00;;;;;;;;;;10545105;28;20202;-72
2021/07/10 03:59:40;;;;;;;14.93;9.77;;;;;;;;;;10533471;28;20705;-73
2021/07/10 04:04:43;;;;;;;15.50;9.83;;;;;;;;;;10555334;28;20185;-74
2021/07/10 04:09:47;;;;;;;18.07;10.40;;;;;;;;;;10551251;28;20269;-73
2021/07/10 04:14:49;;;;;;;17.20;10.13;;;;;;;;;;10558478;28;20210;-74
2021/07/10 04:19:57;;;;;;;14.27;9.60;;;;;;;;;;10519799;28;20228;-73
2021/07/10 04:25:03;;;;;;;15.37;10.47;;;;;;;;;;10534066;28;20274;-75
2021/07/10 04:30:06;;;;;;;15.27;9.97;;;;;;;;;;10547715;28;20290;-74
2021/07/10 04:35:09;;;;;;;15.00;9.27;;;;;;;;;;10558640;28;20718;-74
2021/07/10 04:40:14;;;;;;;14.70;10.50;;;;;;;;;;10548893;28;20216;-73
2021/07/10 04:45:16;;;;;;;12.93;8.50;;;;;;;;;;10565767;28;20320;-74
2021/07/10 04:50:21;;;;;;;12.13;7.77;;;;;;;;;;10551135;28;20537;-74
2021/07/10 04:55:25;;;;;;;11.50;7.03;;;;;;;;;;10549352;28;20701;-71
2021/07/10 05:00:29;;;;;;;10.80;7.00;;;;;;;;;;10554998;28;20293;-74
2021/07/10 05:05:31;;;;;;;9.67;5.80;;;;;;;;;;10539884;28;20255;-74
2021/07/10 05:10:36;;;;;;;11.77;6.70;;;;;;;;;;10548544;28;20260;-74
2021/07/10 05:15:38;;;;;;;10.00;6.10;;;;;;;;;;10528976;28;20215;-73
2021/07/10 05:20:41;;;;;;;10.67;6.40;;;;;;;;;;10551122;28;20235;-72
2021/07/10 05:25:45;;;;;;;9.90;5.73;;;;;;;;;;10554151;28;20658;-72
2021/07/10 05:30:49;;;;;;;8.53;5.63;;;;;;;;;;10547706;28;20225;-73
2021/07/10 05:35:52;;;;;;;10.63;5.83;;;;;;;;;;10544172;28;20291;-73
2021/07/10 05:40:56;;;;;;;9.23;5.33;;;;;;;;;;10552784;28;20207;-70
2021/07/10 05:45:58;;;;;;;9.73;6.03;;;;;;;;;;10556565;28;20253;-71
2021/07/10 05:51:01;;;;;;;11.90;6.53;;;;;;;;;;10532936;28;20272;-72
2021/07/10 05:56:05;;;;;;;10.33;6.77;;;;;;;;;;10552259;28;20627;-72
2021/07/10 06:01:08;;;;;;;10.70;6.17;;;;;;;;;;10551101;28;20219;-71
2021/07/10 06:06:10;;;;;;;12.20;7.17;;;;;;;;;;10548854;28;20222;-70
2021/07/10 06:11:15;;;;;;;10.03;6.03;;;;;;;;;;10547476;28;20280;-72
2021/07/10 06:16:17;;;;;;;10.33;6.97;;;;;;;;;;10542593;28;20678;-69
2021/07/10 06:21:20;;;;;;;9.33;6.33;;;;;;;;;;10541519;28;20210;-72
2021/07/10 06:26:25;;;;;;;11.00;6.50;;;;;;;;;;10553591;28;20203;-73
2021/07/10 06:31:27;;;;;;;9.57;6.30;;;;;;;;;;10553088;28;20242;-73
2021/07/10 06:36:30;;;;;;;9.03;5.53;;;;;;;;;;10559717;28;20255;-73
2021/07/10 06:41:34;;;;;;;9.30;5.60;;;;;;;;;;10546500;28;20761;-72
2021/07/10 06:46:37;;;;;;;9.40;6.10;;;;;;;;;;10541313;28;20252;-74
2021/07/10 06:51:40;;;;;;;10.23;5.73;;;;;;;;;;10542955;28;20340;-72
2021/07/10 06:56:44;;;;;;;9.87;5.50;;;;;;;;;;10545749;28;20195;-73
2021/07/10 07:01:50;;;;;;;9.80;6.03;;;;;;;;;;10535003;28;20646;-76
2021/07/10 07:06:53;;;;;;;9.57;6.13;;;;;;;;;;10566794;28;20191;-75
2021/07/10 07:11:57;;;;;;;11.33;6.77;;;;;;;;;;10552697;28;20314;-75
2021/07/10 07:16:59;;;;;;;9.60;5.67;;;;;;;;;;10577493;28;20643;-75
2021/07/10 07:22:02;;;;;;;9.30;5.43;;;;;;;;;;10546006;28;20218;-75
2021/07/10 07:27:06;;;;;;;10.17;5.87;;;;;;;;;;10566412;28;20203;-75
2021/07/10 07:32:09;;;;;;;9.47;6.13;;;;;;;;;;10570822;28;20204;-76
2021/07/10 07:37:12;;;;;;;9.20;6.07;;;;;;;;;;10569190;28;20599;-76
2021/07/10 07:42:16;;;;;;;8.77;5.37;;;;;;;;;;10547543;28;20586;-75
2021/07/10 07:47:19;;;;;;;10.60;5.73;;;;;;;;;;10577243;28;20220;-75
2021/07/10 07:52:22;;;;;;;9.30;5.00;;;;;;;;;;10572022;28;20363;-75
2021/07/10 07:57:25;;;;;;;7.80;4.57;;;;;;;;;;10567612;28;20191;-75
2021/07/10 08:02:28;;;;;;;7.00;4.38;;;;;;;;;;10569020;28;20246;-74
2021/07/10 08:07:31;;;;;;;7.38;4.28;;;;;;;;;;10566413;28;20188;-75
2021/07/10 08:12:39;;;;;;;7.50;4.30;;;;;;;;;;10561438;28;20226;-75
2021/07/10 08:17:42;;;;;;;6.43;3.88;;;;;;;;;;10552912;28;20240;-76
2021/07/10 08:22:45;;;;;;;6.00;4.15;;;;;;;;;;10560622;28;20207;-73
2021/07/10 08:27:50;;;;;;;7.30;4.50;;;;;;;;;;10559272;28;20654;-70
2021/07/10 08:32:52;;;;;;;7.68;5.15;;;;;;;;;;10558935;28;20264;-72
2021/07/10 08:37:55;;;;;;;7.25;4.57;;;;;;;;;;10556547;28;20683;-72
2021/07/10 08:42:59;;;;;;;7.75;4.43;;;;;;;;;;10558310;28;20234;-71
2021/07/10 08:48:02;;;;;;;6.07;4.65;;;;;;;;;;10528318;28;20196;-70
2021/07/10 08:53:05;;;;;;;7.28;4.63;;;;;;;;;;10549088;28;20274;-71
2021/07/10 08:58:09;;;;;;;7.18;4.63;;;;;;;;;;10540868;28;20180;-70
2021/07/10 09:03:12;;;;;;;6.57;4.80;;;;;;;;;;10545081;28;20605;-71
2021/07/10 09:08:20;;;;;;;7.55;5.13;;;;;;;;;;10548331;28;20214;-71
2021/07/10 09:13:32;;;;;;;7.18;4.20;;;;;;;;;;10549929;28;20218;-72
2021/07/10 09:18:36;;;;;;;6.55;4.78;;;;;;;;;;10548417;28;20206;-73
2021/07/10 09:23:40;;;;;;;6.28;4.70;;;;;;;;;;10545917;28;20768;-72
2021/07/10 09:28:44;;;;;;;6.82;4.47;;;;;;;;;;10523099;28;20249;-73
2021/07/10 09:33:46;;;;;;;7.55;4.88;;;;;;;;;;10551730;28;20234;-72
2021/07/10 09:38:52;;;;;;;6.82;5.22;;;;;;;;;;10541341;28;20240;-72
2021/07/10 09:44:03;;;;;;;8.02;4.90;;;;;;;;;;10545020;28;20211;-71
2021/07/10 09:49:25;;;;;;;7.32;4.50;;;;;;;;;;10555190;28;20263;-72
2021/07/10 09:54:29;;;;;;;7.75;4.70;;;;;;;;;;10543831;28;20675;-72
2021/07/10 09:59:34;;;;;;;7.93;5.70;;;;;;;;;;10521216;28;20196;-73
2021/07/10 10:04:37;;;;;;;5.85;4.30;;;;;;;;;;10538749;28;20203;-71
2021/07/10 10:09:40;;;;;;;5.75;3.90;;;;;;;;;;10548566;28;20289;-71
2021/07/10 10:14:46;;;;;;;6.28;4.22;;;;;;;;;;10546005;28;20226;-72
2021/07/10 10:19:49;;;;;;;5.68;4.00;;;;;;;;;;10541636;28;20294;-73
2021/07/10 10:24:54;;;;;;;6.28;4.38;;;;;;;;;;10541805;28;20186;-72
2021/07/10 10:29:57;;;;;;;6.90;3.80;;;;;;;;;;10552485;28;20234;-71
2021/07/10 10:35:00;;;;;;;7.65;5.68;;;;;;;;;;10554289;28;20274;-70
2021/07/10 10:40:05;;;;;;;6.45;4.25;;;;;;;;;;10531133;28;20210;-72
2021/07/10 10:45:10;;;;;;;5.85;4.35;;;;;;;;;;10552028;28;20207;-71
2021/07/10 10:50:16;;;;;;;6.78;4.75;;;;;;;;;;10554869;28;20294;-72
2021/07/10 10:55:20;;;;;;;6.68;4.70;;;;;;;;;;10546520;28;20374;-72
2021/07/10 11:00:32;;;;;;;6.88;5.05;;;;;;;;;;10556064;28;20207;-71
2021/07/10 11:05:48;;;;;;;6.97;4.82;;;;;;;;;;10539338;28;20187;-73
2021/07/10 11:11:05;;;;;;;5.45;4.10;;;;;;;;;;10559271;28;20285;-72
2021/07/10 11:16:10;;;;;;;5.28;4.15;;;;;;;;;;10558001;28;20259;-71
2021/07/10 11:21:13;;;;;;;5.80;4.45;;;;;;;;;;10562256;28;20215;-71
2021/07/10 11:26:17;;;;;;;6.82;4.40;;;;;;;;;;10549120;28;20191;-71
2021/07/10 11:31:22;;;;;;;6.03;4.05;;;;;;;;;;10553642;28;20211;-70
2021/07/10 11:36:38;;;;;;;7.28;4.38;;;;;;;;;;10554787;28;20207;-70
2021/07/10 11:41:41;;;;;;;5.28;3.80;;;;;;;;;;10552739;28;20225;-76
2021/07/10 11:47:05;;;;;;;6.50;4.40;;;;;;;;;;10554483;28;20195;-72
2021/07/10 11:52:09;;;;;;;5.47;4.03;;;;;;;;;;10549938;28;20247;-70
2021/07/10 11:57:12;;;;;;;5.00;3.72;;;;;;;;;;10551984;28;20212;-72
2021/07/10 12:02:16;;;;;;;4.82;3.75;;;;;;;;;;10552850;28;20582;-71
2021/07/10 12:07:19;;;;;;;5.60;3.38;;;;;;;;;;10546414;28;20192;-72
2021/07/10 12:12:22;;;;;;;6.82;4.22;;;;;;;;;;10552686;28;20290;-73
2021/07/10 12:17:26;;;;;;;5.72;3.72;;;;;;;;;;10556222;28;20700;-72
2021/07/10 12:22:29;;;;;;;5.30;3.50;;;;;;;;;;10545808;28;20223;-71
2021/07/10 12:27:32;;;;;;;6.40;3.50;;;;;;;;;;10548870;28;20662;-71
2021/07/10 12:32:37;;;;;;;4.80;3.50;;;;;;;;;;10553638;28;20216;-72
2021/07/10 12:37:40;;;;;;;4.55;3.17;;;;;;;;;;10541847;28;20268;-70
2021/07/10 12:42:42;;;;;;;6.43;3.63;;;;;;;;;;10548316;28;20203;-71
2021/07/10 12:47:46;;;;;;;5.70;3.78;;;;;;;;;;10552443;28;20188;-72
2021/07/10 12:52:57;;;;;;;5.07;3.58;;;;;;;;;;10554123;28;20271;-72
2021/07/10 12:58:00;;;;;;;4.30;3.50;;;;;;;;;;10554125;28;20272;-71
2021/07/10 13:03:07;;;;;;;4.68;3.10;;;;;;;;;;10555977;28;20295;-70
2021/07/10 13:08:12;;;;;;;5.03;3.58;;;;;;;;;;10549635;28;20191;-70
2021/07/10 13:13:16;;;;;;;6.25;3.50;;;;;;;;;;10550274;28;20206;-72
2021/07/10 13:18:21;;;;;;;5.57;3.42;;;;;;;;;;10555806;28;20276;-72
2021/07/10 13:23:41;;;;;;;5.80;3.60;;;;;;;;;;10549779;28;20326;-71
2021/07/10 13:28:45;;;;;;;5.13;3.40;;;;;;;;;;10561452;28;20287;-71
2021/07/10 13:33:50;;;;;;;5.25;3.45;;;;;;;;;;10554959;28;20277;-71
2021/07/10 13:38:53;;;;;;;5.95;3.30;;;;;;;;;;10523528;28;20324;-70
2021/07/10 13:44:04;;;;;;;5.00;3.30;;;;;;;;;;10559548;28;20622;-71
2021/07/10 13:49:25;;;;;;;5.05;3.42;;;;;;;;;;10550919;28;20199;-72
2021/07/10 13:54:33;;;;;;;6.75;3.97;;;;;;;;;;10558275;28;20203;-71
2021/07/10 13:59:36;;;;;;;4.75;3.42;;;;;;;;;;10530076;28;20223;-72
2021/07/10 14:04:38;;;;;;;6.15;3.15;;;;;;;;;;10554092;28;20188;-72
2021/07/10 14:09:42;;;;;;;5.60;3.15;;;;;;;;;;10559458;28;20210;-71
2021/07/10 14:14:44;;;;;;;5.40;3.53;;;;;;;;;;10547256;28;20716;-71
2021/07/10 14:19:47;;;;;;;5.00;3.30;;;;;;;;;;10542174;28;20603;-71
2021/07/10 14:24:51;;;;;;;6.45;3.50;;;;;;;;;;10554193;28;20531;-69
2021/07/10 14:29:53;;;;;;;6.10;3.40;;;;;;;;;;10553152;28;20666;-70
2021/07/10 14:35:16;;;;;;;4.63;3.13;;;;;;;;;;10530209;28;20211;-72
2021/07/10 14:40:21;;;;;;;4.72;3.25;;;;;;;;;;10545309;28;20298;-71
2021/07/10 14:45:23;;;;;;;5.30;3.30;;;;;;;;;;10542106;28;20226;-71
2021/07/10 14:50:26;;;;;;;4.38;3.08;;;;;;;;;;10547273;28;20211;-72
2021/07/10 14:55:30;;;;;;;5.20;3.10;;;;;;;;;;10545007;28;20260;-72
2021/07/10 15:00:33;;;;;;;5.18;3.05;;;;;;;;;;10527134;28;20249;-72
2021/07/10 15:05:36;;;;;;;4.40;3.10;;;;;;;;;;10546122;28;20212;-71
2021/07/10 15:10:40;;;;;;;5.45;3.55;;;;;;;;;;10540135;28;20728;-70
2021/07/10 15:15:42;;;;;;;8.40;4.50;;;;;;;;;;10549234;28;20210;-70
2021/07/10 15:20:45;;;;;;;4.75;3.10;;;;;;;;;;10554636;28;20721;-72
2021/07/10 15:25:50;;;;;;;5.65;3.20;;;;;;;;;;10547308;28;20355;-72
2021/07/10 15:30:53;;;;;;;5.78;3.47;;;;;;;;;;10542658;28;20226;-72
2021/07/10 15:35:55;;;;;;;8.90;6.32;;;;;;;;;;10543042;28;20366;-71
2021/07/10 15:40:59;;;;;;;7.28;4.78;;;;;;;;;;10541659;28;20212;-70
2021/07/10 15:46:02;;;;;;;6.03;3.65;;;;;;;;;;10543951;28;20241;-72
2021/07/10 15:51:05;;;;;;;6.07;3.50;;;;;;;;;;10537425;28;20627;-71
2021/07/10 15:56:09;;;;;;;6.95;3.67;;;;;;;;;;10544714;28;20211;-70
2021/07/10 16:01:11;;;;;;;4.82;3.08;;;;;;;;;;10550208;28;20255;-71
2021/07/10 16:06:14;;;;;;;10.40;6.65;;;;;;;;;;10550412;28;20196;-70
2021/07/10 16:11:18;;;;;;;7.20;4.20;;;;;;;;;;10541289;28;20276;-73
2021/07/10 16:16:21;;;;;;;4.85;3.22;;;;;;;;;;10548649;28;20212;-71
2021/07/10 16:21:24;;;;;;;5.72;3.38;;;;;;;;;;10545365;28;20686;-72
2021/07/10 16:26:28;;;;;;;5.22;3.20;;;;;;;;;;10548273;28;20188;-72
2021/07/10 16:31:31;;;;;;;6.28;3.50;;;;;;;;;;10534796;28;20227;-71
2021/07/10 16:36:33;;;;;;;6.00;3.70;;;;;;;;;;10528185;28;20203;-70
2021/07/10 16:41:38;;;;;;;7.07;4.55;;;;;;;;;;10537889;28;20219;-70
2021/07/10 16:46:40;;;;;;;5.53;3.47;;;;;;;;;;10553886;28;20266;-71
2021/07/10 16:51:43;;;;;;;5.88;3.35;;;;;;;;;;10556733;28;20211;-71
2021/07/10 16:56:47;;;;;;;6.70;3.78;;;;;;;;;;10545473;28;20215;-69
2021/07/10 17:01:50;;;;;;;7.07;3.50;;;;;;;;;;10538551;28;20260;-70
2021/07/10 17:06:52;;;;;;;5.32;3.25;;;;;;;;;;10530461;28;20607;-70
2021/07/10 17:11:56;;;;;;;5.70;3.22;;;;;;;;;;10550574;28;20254;-71
2021/07/10 17:16:59;;;;;;;6.60;3.70;;;;;;;;;;10550688;28;21140;-71
2021/07/10 17:22:02;;;;;;;5.75;3.45;;;;;;;;;;10544453;28;20234;-71
2021/07/10 17:27:06;;;;;;;8.23;5.32;;;;;;;;;;10558509;28;20225;-71
2021/07/10 17:32:08;;;;;;;8.05;4.60;;;;;;;;;;10547241;28;20619;-70
2021/07/10 17:37:11;;;;;;;5.95;3.75;;;;;;;;;;10548802;28;20219;-71
2021/07/10 17:42:16;;;;;;;5.13;3.20;;;;;;;;;;10546017;28;20273;-70
2021/07/10 17:47:19;;;;;;;5.00;3.15;;;;;;;;;;10554384;28;20379;-71
2021/07/10 17:52:21;;;;;;;6.22;3.40;;;;;;;;;;10543151;28;20214;-72
2021/07/10 17:57:25;;;;;;;5.15;3.30;;;;;;;;;;10545875;28;20231;-71
2021/07/10 18:02:28;;;;;;;6.63;3.63;;;;;;;;;;10540874;28;20269;-71
2021/07/10 18:07:30;;;;;;;6.70;3.60;;;;;;;;;;10552853;28;20259;-71
2021/07/10 18:12:35;;;;;;;6.13;3.65;;;;;;;;;;10546890;28;20574;-71
2021/07/10 18:17:37;;;;;;;6.45;3.63;;;;;;;;;;10535939;28;20246;-70
2021/07/10 18:22:40;;;;;;;6.10;3.25;;;;;;;;;;10541190;28;20294;-71
2021/07/10 18:27:44;;;;;;;7.28;3.70;;;;;;;;;;10549829;28;20610;-71
2021/07/10 18:32:47;;;;;;;6.35;3.30;;;;;;;;;;10544633;28;20222;-72
2021/07/10 18:37:50;;;;;;;5.72;3.15;;;;;;;;;;10549334;28;20199;-71
2021/07/10 18:42:54;;;;;;;6.95;3.38;;;;;;;;;;10543374;28;20530;-71
2021/07/10 18:47:57;;;;;;;6.50;3.67;;;;;;;;;;10544433;28;20202;-72
2021/07/10 18:53:00;;;;;;;6.22;3.60;;;;;;;;;;10543437;28;20291;-73
2021/07/10 18:58:05;;;;;;;6.22;3.33;;;;;;;;;;10537450;28;20574;-70
2021/07/10 19:03:08;;;;;;;6.68;3.38;;;;;;;;;;10534219;28;20215;-70
2021/07/10 19:08:10;;;;;;;6.00;3.47;;;;;;;;;;10555622;28;20191;-71
2021/07/10 19:13:17;;;;;;;12.32;8.20;;;;;;;;;;10521459;28;20761;-72
2021/07/10 19:18:20;;;;;;;10.45;5.85;;;;;;;;;;10549621;28;20218;-71
2021/07/10 19:23:23;;;;;;;6.63;3.70;;;;;;;;;;10551953;28;20596;-72
2021/07/10 19:28:27;;;;;;;6.63;3.47;;;;;;;;;;10535377;28;20642;-72
2021/07/10 19:33:30;;;;;;;5.80;3.67;;;;;;;;;;10550833;28;20344;-72
2021/07/10 19:38:32;;;;;;;7.17;3.70;;;;;;;;;;10549938;28;20235;-72
2021/07/10 19:43:37;;;;;;;6.28;3.67;;;;;;;;;;10534009;28;20243;-71
2021/07/10 19:48:39;;;;;;;7.73;5.13;;;;;;;;;;10547444;28;20285;-71
2021/07/10 19:53:44;;;;;;;12.20;7.47;;;;;;;;;;10535078;28;20211;-71
2021/07/10 19:58:49;;;;;;;19.52;15.02;;;;;;;;;;10551742;28;20639;-72
2021/07/10 20:03:52;;;;;;;11.10;7.35;;;;;;;;;;10537139;28;20221;-72
2021/07/10 20:08:55;;;;;;;7.53;4.63;;;;;;;;;;10547338;28;20615;-72
2021/07/10 20:13:58;;;;;;;10.75;5.72;;;;;;;;;;10546212;28;20294;-72
2021/07/10 20:19:01;;;;;;;11.55;7.15;;;;;;;;;;10544806;28;20228;-72
2021/07/10 20:24:04;;;;;;;8.57;4.68;;;;;;;;;;10554580;28;20294;-71
2021/07/10 20:29:08;;;;;;;7.55;4.32;;;;;;;;;;10550276;28;20192;-71
2021/07/10 20:34:10;;;;;;;6.78;3.97;;;;;;;;;;10549523;28;20267;-74
2021/07/10 20:39:13;;;;;;;8.27;5.25;;;;;;;;;;10547643;28;20204;-70
2021/07/10 20:44:17;;;;;;;8.45;5.20;;;;;;;;;;10548412;28;20765;-69
2021/07/10 20:49:20;;;;;;;8.27;4.93;;;;;;;;;;10552362;28;20640;-70
2021/07/10 20:54:22;;;;;;;8.27;5.10;;;;;;;;;;10552381;28;20244;-72
2021/07/10 20:59:26;;;;;;;8.50;5.00;;;;;;;;;;10541070;28;20679;-70
2021/07/10 21:04:29;;;;;;;6.47;3.90;;;;;;;;;;10545192;28;20214;-71
2021/07/10 21:09:32;;;;;;;6.80;3.80;;;;;;;;;;10543332;28;20188;-71
2021/07/10 21:14:36;;;;;;;10.30;4.63;;;;;;;;;;10553557;28;20761;-74
2021/07/10 21:19:38;;;;;;;10.13;6.57;;;;;;;;;;10532916;28;20199;-73
2021/07/10 21:24:41;;;;;;;9.40;6.53;;;;;;;;;;10542214;28;20748;-74
2021/07/10 21:29:45;;;;;;;10.90;7.13;;;;;;;;;;10549028;28;20212;-75
2021/07/10 21:34:47;;;;;;;11.93;8.10;;;;;;;;;;10550628;28;20346;-75
2021/07/10 21:39:50;;;;;;;12.90;9.17;;;;;;;;;;10545598;28;20290;-75
2021/07/10 21:44:54;;;;;;;11.93;7.97;;;;;;;;;;10544409;28;20266;-74
2021/07/10 21:49:56;;;;;;;12.03;8.10;;;;;;;;;;10554046;28;20210;-75
2021/07/10 21:54:59;;;;;;;13.20;9.27;;;;;;;;;;10544052;28;20211;-75
2021/07/10 22:00:06;;;;;;;11.27;7.97;;;;;;;;;;10542042;28;20224;-74
2021/07/10 22:05:08;;;;;;;13.80;8.90;;;;;;;;;;10545779;28;20196;-75
2021/07/10 22:10:11;;;;;;;11.30;8.13;;;;;;;;;;10535170;28;20211;-75
2021/07/10 22:15:15;;;;;;;13.40;8.10;;;;;;;;;;10550316;28;20218;-74
2021/07/10 22:20:18;;;;;;;12.43;7.60;;;;;;;;;;10531959;28;20256;-75
2021/07/10 22:25:42;;;;;;;10.33;7.30;;;;;;;;;;10548162;28;20199;-75
2021/07/10 22:30:45;;;;;;;11.27;7.90;;;;;;;;;;10552950;28;20290;-76
2021/07/10 22:35:49;;;;;;;11.80;7.60;;;;;;;;;;10554519;28;20244;-76
2021/07/10 22:40:52;;;;;;;10.13;5.33;;;;;;;;;;10557031;28;20725;-76
2021/07/10 22:45:56;;;;;;;9.03;5.60;;;;;;;;;;10546507;28;20215;-76
2021/07/10 22:50:59;;;;;;;9.17;5.50;;;;;;;;;;10548698;28;20217;-77
2021/07/10 22:56:02;;;;;;;8.87;6.07;;;;;;;;;;10547660;28;20183;-75
2021/07/10 23:01:07;;;;;;;9.73;6.60;;;;;;;;;;10552711;28;20214;-76
2021/07/10 23:06:10;;;;;;;10.17;6.70;;;;;;;;;;10534462;28;20800;-76
2021/07/10 23:11:13;;;;;;;9.90;6.47;;;;;;;;;;10561247;28;20229;-76
2021/07/10 23:16:18;;;;;;;8.87;5.13;;;;;;;;;;10548805;28;20290;-76
2021/07/10 23:21:20;;;;;;;8.00;5.17;;;;;;;;;;10561466;28;20215;-76
2021/07/10 23:26:23;;;;;;;6.97;4.07;;;;;;;;;;10558632;28;20187;-76
2021/07/10 23:31:28;;;;;;;6.13;2.50;;;;;;;;;;10556297;28;20687;-75
2021/07/10 23:36:31;;;;;;;6.77;2.90;;;;;;;;;;10562661;28;20217;-76
2021/07/10 23:41:34;;;;;;;5.40;2.77;;;;;;;;;;10559880;28;20249;-75
2021/07/10 23:46:38;;;;;;;4.53;2.50;;;;;;;;;;10572211;28;20247;-76
2021/07/10 23:51:40;;;;;;;3.83;1.93;;;;;;;;;;10562758;28;20212;-75
2021/07/10 23:56:43;;;;;;;5.93;2.10;;;;;;;;;;10551315;28;20199;-74
